sensor_id;sensor_type;location;lat;lon;timestamp;temperature;humidity
9973;DHT22;5027;53.560;10.062;2022-10-16T00:01:58;17.30;99.90
9973;DHT22;5027;53.560;10.062;2022-10-16T00:04:26;17.30;99.90
9973;DHT22;5027;53.560;10.062;2022-10-16T00:06:52;17.30;99.90
9973;DHT22;5027;53.560;10.062;2022-10-16T00:09:19;17.40;99.90
9973;DHT22;5027;53.560;10.062;2022-10-16T00:11:46;17.30;99.90
9973;DHT22;5027;53.560;10.062;2022-10-16T00:14:14;17.30;99.90
9973;DHT22;5027;53.560;10.062;2022-10-16T00:16:41;17.30;99.90
9973;DHT22;5027;53.560;10.062;2022-10-16T00:19:10;17.30;99.90
9973;DHT22;5027;53.560;10.062;2022-10-16T00:21:38;17.20;99.90
9973;DHT22;5027;53.560;10.062;2022-10-16T00:24:07;17.30;99.90
9973;DHT22;5027;53.560;10.062;2022-10-16T00:26:37;17.30;99.90
9973;DHT22;5027;53.560;10.062;2022-10-16T00:29:05;17.20;99.90
9973;DHT22;5027;53.560;10.062;2022-10-16T00:31:32;17.20;99.90
9973;DHT22;5027;53.560;10.062;2022-10-16T00:33:59;17.20;99.90
9973;DHT22;5027;53.560;10.062;2022-10-16T00:36:26;17.20;99.90
9973;DHT22;5027;53.560;10.062;2022-10-16T00:38:55;17.20;99.90
9973;DHT22;5027;53.560;10.062;2022-10-16T00:41:25;17.20;99.90
9973;DHT22;5027;53.560;10.062;2022-10-16T00:43:56;17.20;99.90
9973;DHT22;5027;53.560;10.062;2022-10-16T00:46:27;17.20;99.90
9973;DHT22;5027;53.560;10.062;2022-10-16T00:49:08;17.30;99.90
9973;DHT22;5027;53.560;10.062;2022-10-16T00:51:45;17.30;99.90
9973;DHT22;5027;53.560;10.062;2022-10-16T00:54:15;17.30;99.90
9973;DHT22;5027;53.560;10.062;2022-10-16T00:56:44;17.30;99.90
9973;DHT22;5027;53.560;10.062;2022-10-16T00:59:18;17.30;99.90
9973;DHT22;5027;53.560;10.062;2022-10-16T01:01:45;17.20;99.90
9973;DHT22;5027;53.560;10.062;2022-10-16T01:04:12;17.20;99.90
9973;DHT22;5027;53.560;10.062;2022-10-16T01:06:49;17.30;99.90
9973;DHT22;5027;53.560;10.062;2022-10-16T01:12:16;17.30;99.90
9973;DHT22;5027;53.560;10.062;2022-10-16T01:14:48;17.30;99.90
9973;DHT22;5027;53.560;10.062;2022-10-16T01:17:24;17.30;99.90
9973;DHT22;5027;53.560;10.062;2022-10-16T01:23:36;17.20;99.90
9973;DHT22;5027;53.560;10.062;2022-10-16T01:26:28;17.10;99.90
9973;DHT22;5027;53.560;10.062;2022-10-16T01:29:11;17.10;99.90
9973;DHT22;5027;53.560;10.062;2022-10-16T01:31:45;17.10;99.90
9973;DHT22;5027;53.560;10.062;2022-10-16T01:34:23;17.00;99.90
9973;DHT22;5027;53.560;10.062;2022-10-16T01:37:02;17.00;99.90
9973;DHT22;5027;53.560;10.062;2022-10-16T01:39:33;17.00;99.90
9973;DHT22;5027;53.560;10.062;2022-10-16T01:42:08;17.00;99.90
9973;DHT22;5027;53.560;10.062;2022-10-16T01:44:36;17.10;99.90
9973;DHT22;5027;53.560;10.062;2022-10-16T01:47:04;17.10;99.90
9973;DHT22;5027;53.560;10.062;2022-10-16T01:49:33;17.10;99.90
9973;DHT22;5027;53.560;10.062;2022-10-16T01:52:05;17.10;99.90
9973;DHT22;5027;53.560;10.062;2022-10-16T01:54:34;17.10;99.90
9973;DHT22;5027;53.560;10.062;2022-10-16T01:57:03;17.10;99.90
9973;DHT22;5027;53.560;10.062;2022-10-16T01:59:40;17.10;99.90
9973;DHT22;5027;53.560;10.062;2022-10-16T02:02:10;17.10;99.90
9973;DHT22;5027;53.560;10.062;2022-10-16T02:04:42;17.10;99.90
9973;DHT22;5027;53.560;10.062;2022-10-16T02:07:11;17.10;99.90
9973;DHT22;5027;53.560;10.062;2022-10-16T02:09:38;17.00;99.90
9973;DHT22;5027;53.560;10.062;2022-10-16T02:12:15;17.00;99.90
9973;DHT22;5027;53.560;10.062;2022-10-16T02:14:45;17.00;99.90
9973;DHT22;5027;53.560;10.062;2022-10-16T02:17:17;17.00;99.90
9973;DHT22;5027;53.560;10.062;2022-10-16T02:19:46;16.90;99.90
9973;DHT22;5027;53.560;10.062;2022-10-16T02:22:41;16.90;99.90
9973;DHT22;5027;53.560;10.062;2022-10-16T02:25:15;17.00;99.90
9973;DHT22;5027;53.560;10.062;2022-10-16T02:28:00;16.90;99.90
9973;DHT22;5027;53.560;10.062;2022-10-16T02:33:09;16.80;99.90
9973;DHT22;5027;53.560;10.062;2022-10-16T02:35:37;16.80;99.90
9973;DHT22;5027;53.560;10.062;2022-10-16T02:38:05;16.80;99.90
9973;DHT22;5027;53.560;10.062;2022-10-16T02:40:33;16.80;99.90
9973;DHT22;5027;53.560;10.062;2022-10-16T02:43:00;16.80;99.90
9973;DHT22;5027;53.560;10.062;2022-10-16T02:45:26;16.80;99.90
9973;DHT22;5027;53.560;10.062;2022-10-16T02:47:53;16.80;99.90
9973;DHT22;5027;53.560;10.062;2022-10-16T02:50:19;16.80;99.90
9973;DHT22;5027;53.560;10.062;2022-10-16T02:52:46;16.90;99.90
9973;DHT22;5027;53.560;10.062;2022-10-16T02:55:13;16.80;99.90
9973;DHT22;5027;53.560;10.062;2022-10-16T02:57:39;16.80;99.90
9973;DHT22;5027;53.560;10.062;2022-10-16T03:00:08;16.80;99.90
9973;DHT22;5027;53.560;10.062;2022-10-16T03:02:36;16.80;99.90
9973;DHT22;5027;53.560;10.062;2022-10-16T03:05:02;16.80;99.90
9973;DHT22;5027;53.560;10.062;2022-10-16T03:07:29;16.80;99.90
9973;DHT22;5027;53.560;10.062;2022-10-16T03:09:56;16.80;99.90
9973;DHT22;5027;53.560;10.062;2022-10-16T03:12:23;16.80;99.90
9973;DHT22;5027;53.560;10.062;2022-10-16T03:14:49;16.70;99.90
9973;DHT22;5027;53.560;10.062;2022-10-16T03:17:16;16.80;99.90
9973;DHT22;5027;53.560;10.062;2022-10-16T03:19:43;16.70;99.90
9973;DHT22;5027;53.560;10.062;2022-10-16T03:22:10;16.70;99.90
9973;DHT22;5027;53.560;10.062;2022-10-16T03:24:36;16.60;99.90
9973;DHT22;5027;53.560;10.062;2022-10-16T03:27:03;16.60;99.90
9973;DHT22;5027;53.560;10.062;2022-10-16T03:29:30;16.60;99.90
9973;DHT22;5027;53.560;10.062;2022-10-16T03:31:56;16.60;99.90
9973;DHT22;5027;53.560;10.062;2022-10-16T03:34:23;16.60;99.90
9973;DHT22;5027;53.560;10.062;2022-10-16T03:36:50;16.60;99.90
9973;DHT22;5027;53.560;10.062;2022-10-16T03:39:16;16.60;99.90
9973;DHT22;5027;53.560;10.062;2022-10-16T03:41:43;16.70;99.90
9973;DHT22;5027;53.560;10.062;2022-10-16T03:44:10;16.70;99.90
9973;DHT22;5027;53.560;10.062;2022-10-16T03:46:38;16.60;99.90
9973;DHT22;5027;53.560;10.062;2022-10-16T03:49:04;16.70;99.90
9973;DHT22;5027;53.560;10.062;2022-10-16T03:51:35;16.70;99.90
9973;DHT22;5027;53.560;10.062;2022-10-16T03:54:02;16.60;99.90
9973;DHT22;5027;53.560;10.062;2022-10-16T03:56:29;16.60;99.90
9973;DHT22;5027;53.560;10.062;2022-10-16T03:58:55;16.60;99.90
9973;DHT22;5027;53.560;10.062;2022-10-16T04:01:22;16.50;99.90
9973;DHT22;5027;53.560;10.062;2022-10-16T04:03:49;16.50;99.90
9973;DHT22;5027;53.560;10.062;2022-10-16T04:06:15;16.50;99.90
9973;DHT22;5027;53.560;10.062;2022-10-16T04:08:43;16.50;99.90
9973;DHT22;5027;53.560;10.062;2022-10-16T04:11:10;16.50;99.90
9973;DHT22;5027;53.560;10.062;2022-10-16T04:13:36;16.50;99.90
9973;DHT22;5027;53.560;10.062;2022-10-16T04:16:03;16.60;99.90
9973;DHT22;5027;53.560;10.062;2022-10-16T04:18:30;16.50;99.90
9973;DHT22;5027;53.560;10.062;2022-10-16T04:20:57;16.50;99.90
9973;DHT22;5027;53.560;10.062;2022-10-16T04:23:27;16.40;99.90
9973;DHT22;5027;53.560;10.062;2022-10-16T04:25:54;16.40;99.90
9973;DHT22;5027;53.560;10.062;2022-10-16T04:28:21;16.50;99.90
9973;DHT22;5027;53.560;10.062;2022-10-16T04:30:50;16.50;99.90
9973;DHT22;5027;53.560;10.062;2022-10-16T04:33:17;16.50;99.90
9973;DHT22;5027;53.560;10.062;2022-10-16T04:35:44;16.60;99.90
9973;DHT22;5027;53.560;10.062;2022-10-16T04:38:10;16.50;99.90
9973;DHT22;5027;53.560;10.062;2022-10-16T04:40:37;16.40;99.90
9973;DHT22;5027;53.560;10.062;2022-10-16T04:43:04;16.50;99.90
9973;DHT22;5027;53.560;10.062;2022-10-16T04:45:31;16.40;99.90
9973;DHT22;5027;53.560;10.062;2022-10-16T04:47:59;16.40;99.90
9973;DHT22;5027;53.560;10.062;2022-10-16T04:50:26;16.50;99.90
9973;DHT22;5027;53.560;10.062;2022-10-16T04:53:05;16.40;99.90
9973;DHT22;5027;53.560;10.062;2022-10-16T04:55:32;16.40;99.90
9973;DHT22;5027;53.560;10.062;2022-10-16T04:57:59;16.40;99.90
9973;DHT22;5027;53.560;10.062;2022-10-16T05:00:26;16.40;99.90
9973;DHT22;5027;53.560;10.062;2022-10-16T05:02:53;16.40;99.90
9973;DHT22;5027;53.560;10.062;2022-10-16T05:05:19;16.40;99.90
9973;DHT22;5027;53.560;10.062;2022-10-16T05:07:47;16.50;99.90
9973;DHT22;5027;53.560;10.062;2022-10-16T05:10:14;16.40;99.90
9973;DHT22;5027;53.560;10.062;2022-10-16T05:12:40;16.40;99.90
9973;DHT22;5027;53.560;10.062;2022-10-16T05:15:07;16.40;99.90
9973;DHT22;5027;53.560;10.062;2022-10-16T05:17:34;16.50;99.90
9973;DHT22;5027;53.560;10.062;2022-10-16T05:20:02;16.40;99.90
9973;DHT22;5027;53.560;10.062;2022-10-16T05:22:30;16.50;99.90
9973;DHT22;5027;53.560;10.062;2022-10-16T05:24:56;16.50;99.90
9973;DHT22;5027;53.560;10.062;2022-10-16T05:27:23;16.50;99.90
9973;DHT22;5027;53.560;10.062;2022-10-16T05:29:50;16.50;99.90
9973;DHT22;5027;53.560;10.062;2022-10-16T05:32:17;16.50;99.90
9973;DHT22;5027;53.560;10.062;2022-10-16T05:34:45;16.50;99.90
9973;DHT22;5027;53.560;10.062;2022-10-16T05:37:12;16.40;99.90
9973;DHT22;5027;53.560;10.062;2022-10-16T05:39:39;16.40;99.90
9973;DHT22;5027;53.560;10.062;2022-10-16T05:42:05;16.40;99.90
9973;DHT22;5027;53.560;10.062;2022-10-16T05:44:32;16.50;99.90
9973;DHT22;5027;53.560;10.062;2022-10-16T05:47:04;16.50;99.90
9973;DHT22;5027;53.560;10.062;2022-10-16T05:49:30;16.40;99.90
9973;DHT22;5027;53.560;10.062;2022-10-16T05:51:57;16.40;99.90
9973;DHT22;5027;53.560;10.062;2022-10-16T05:54:24;16.30;99.90
9973;DHT22;5027;53.560;10.062;2022-10-16T05:56:50;16.40;99.90
9973;DHT22;5027;53.560;10.062;2022-10-16T05:59:17;16.30;99.90
9973;DHT22;5027;53.560;10.062;2022-10-16T06:01:44;16.30;99.90
9973;DHT22;5027;53.560;10.062;2022-10-16T06:04:10;16.30;99.90
9973;DHT22;5027;53.560;10.062;2022-10-16T06:06:37;16.30;99.90
9973;DHT22;5027;53.560;10.062;2022-10-16T06:09:04;16.30;99.90
9973;DHT22;5027;53.560;10.062;2022-10-16T06:11:33;16.40;99.90
9973;DHT22;5027;53.560;10.062;2022-10-16T06:14:01;16.40;99.90
9973;DHT22;5027;53.560;10.062;2022-10-16T06:16:34;16.40;99.90
9973;DHT22;5027;53.560;10.062;2022-10-16T06:19:02;16.30;99.90
9973;DHT22;5027;53.560;10.062;2022-10-16T06:21:32;16.30;99.90
9973;DHT22;5027;53.560;10.062;2022-10-16T06:23:59;16.30;99.90
9973;DHT22;5027;53.560;10.062;2022-10-16T06:26:27;16.30;99.90
9973;DHT22;5027;53.560;10.062;2022-10-16T06:28:55;16.30;99.90
9973;DHT22;5027;53.560;10.062;2022-10-16T06:31:23;16.30;99.90
9973;DHT22;5027;53.560;10.062;2022-10-16T06:33:54;16.30;99.90
9973;DHT22;5027;53.560;10.062;2022-10-16T06:36:21;16.30;99.90
9973;DHT22;5027;53.560;10.062;2022-10-16T06:38:48;16.30;99.90
9973;DHT22;5027;53.560;10.062;2022-10-16T06:41:18;16.40;99.90
9973;DHT22;5027;53.560;10.062;2022-10-16T06:43:44;16.20;99.90
9973;DHT22;5027;53.560;10.062;2022-10-16T06:46:14;16.30;99.90
9973;DHT22;5027;53.560;10.062;2022-10-16T06:48:41;16.20;99.90
9973;DHT22;5027;53.560;10.062;2022-10-16T06:51:13;16.20;99.90
9973;DHT22;5027;53.560;10.062;2022-10-16T06:53:45;16.10;99.90
9973;DHT22;5027;53.560;10.062;2022-10-16T06:56:29;16.20;99.90
9973;DHT22;5027;53.560;10.062;2022-10-16T06:58:57;16.30;99.90
9973;DHT22;5027;53.560;10.062;2022-10-16T07:01:24;16.40;99.90
9973;DHT22;5027;53.560;10.062;2022-10-16T07:03:52;16.30;99.90
9973;DHT22;5027;53.560;10.062;2022-10-16T07:06:23;16.30;99.90
9973;DHT22;5027;53.560;10.062;2022-10-16T07:08:50;16.30;99.90
9973;DHT22;5027;53.560;10.062;2022-10-16T07:11:19;16.30;99.90
9973;DHT22;5027;53.560;10.062;2022-10-16T07:13:47;16.20;99.90
9973;DHT22;5027;53.560;10.062;2022-10-16T07:16:23;16.30;99.90
9973;DHT22;5027;53.560;10.062;2022-10-16T07:18:50;16.40;99.90
9973;DHT22;5027;53.560;10.062;2022-10-16T07:21:21;16.40;99.90
9973;DHT22;5027;53.560;10.062;2022-10-16T07:23:53;16.40;99.90
9973;DHT22;5027;53.560;10.062;2022-10-16T07:26:21;16.40;99.90
9973;DHT22;5027;53.560;10.062;2022-10-16T07:28:48;16.50;99.90
9973;DHT22;5027;53.560;10.062;2022-10-16T07:31:16;16.50;99.90
9973;DHT22;5027;53.560;10.062;2022-10-16T07:33:44;16.50;99.90
9973;DHT22;5027;53.560;10.062;2022-10-16T07:36:12;16.40;99.90
9973;DHT22;5027;53.560;10.062;2022-10-16T07:38:42;16.50;99.90
9973;DHT22;5027;53.560;10.062;2022-10-16T07:41:17;16.60;99.90
9973;DHT22;5027;53.560;10.062;2022-10-16T07:43:52;16.50;99.90
9973;DHT22;5027;53.560;10.062;2022-10-16T07:46:20;16.50;99.90
9973;DHT22;5027;53.560;10.062;2022-10-16T07:48:48;16.50;99.90
9973;DHT22;5027;53.560;10.062;2022-10-16T07:51:17;16.50;99.90
9973;DHT22;5027;53.560;10.062;2022-10-16T07:53:44;16.50;99.90
9973;DHT22;5027;53.560;10.062;2022-10-16T07:56:11;16.50;99.90
9973;DHT22;5027;53.560;10.062;2022-10-16T07:58:38;16.60;99.90
9973;DHT22;5027;53.560;10.062;2022-10-16T08:01:07;16.50;99.90
9973;DHT22;5027;53.560;10.062;2022-10-16T08:03:34;16.50;99.90
9973;DHT22;5027;53.560;10.062;2022-10-16T08:06:02;16.50;99.90
9973;DHT22;5027;53.560;10.062;2022-10-16T08:08:29;16.60;99.90
9973;DHT22;5027;53.560;10.062;2022-10-16T08:10:56;16.60;99.90
9973;DHT22;5027;53.560;10.062;2022-10-16T08:13:23;16.70;99.90
9973;DHT22;5027;53.560;10.062;2022-10-16T08:15:50;16.80;99.90
9973;DHT22;5027;53.560;10.062;2022-10-16T08:18:17;16.80;99.90
9973;DHT22;5027;53.560;10.062;2022-10-16T08:20:43;16.80;99.90
9973;DHT22;5027;53.560;10.062;2022-10-16T08:23:13;16.80;99.90
9973;DHT22;5027;53.560;10.062;2022-10-16T08:25:41;16.80;99.90
9973;DHT22;5027;53.560;10.062;2022-10-16T08:28:09;16.90;99.90
9973;DHT22;5027;53.560;10.062;2022-10-16T08:30:37;16.80;99.90
9973;DHT22;5027;53.560;10.062;2022-10-16T08:33:03;16.90;99.90
9973;DHT22;5027;53.560;10.062;2022-10-16T08:35:30;16.90;99.90
9973;DHT22;5027;53.560;10.062;2022-10-16T08:37:57;17.00;99.90
9973;DHT22;5027;53.560;10.062;2022-10-16T08:40:32;17.00;99.90
9973;DHT22;5027;53.560;10.062;2022-10-16T08:43:24;17.10;99.90
9973;DHT22;5027;53.560;10.062;2022-10-16T08:48:54;17.20;99.90
9973;DHT22;5027;53.560;10.062;2022-10-16T08:51:24;17.30;99.90
9973;DHT22;5027;53.560;10.062;2022-10-16T08:53:58;17.40;99.90
9973;DHT22;5027;53.560;10.062;2022-10-16T08:56:26;17.40;99.90
9973;DHT22;5027;53.560;10.062;2022-10-16T08:58:54;17.40;99.90
9973;DHT22;5027;53.560;10.062;2022-10-16T09:01:37;17.30;99.90
9973;DHT22;5027;53.560;10.062;2022-10-16T09:04:36;17.40;99.90
9973;DHT22;5027;53.560;10.062;2022-10-16T09:10:20;17.40;99.90
9973;DHT22;5027;53.560;10.062;2022-10-16T09:13:12;17.50;99.90
9973;DHT22;5027;53.560;10.062;2022-10-16T09:18:38;17.50;99.90
9973;DHT22;5027;53.560;10.062;2022-10-16T09:23:41;17.70;99.90
9973;DHT22;5027;53.560;10.062;2022-10-16T09:26:12;17.60;99.90
9973;DHT22;5027;53.560;10.062;2022-10-16T09:28:40;17.60;99.90
9973;DHT22;5027;53.560;10.062;2022-10-16T09:31:15;17.60;99.90
9973;DHT22;5027;53.560;10.062;2022-10-16T09:33:45;17.70;99.90
9973;DHT22;5027;53.560;10.062;2022-10-16T09:36:13;17.70;99.90
9973;DHT22;5027;53.560;10.062;2022-10-16T09:38:40;17.80;99.90
9973;DHT22;5027;53.560;10.062;2022-10-16T09:43:49;17.80;99.90
9973;DHT22;5027;53.560;10.062;2022-10-16T09:47:12;17.80;99.90
9973;DHT22;5027;53.560;10.062;2022-10-16T09:50:24;17.80;99.90
9973;DHT22;5027;53.560;10.062;2022-10-16T09:53:26;17.80;99.90
9973;DHT22;5027;53.560;10.062;2022-10-16T09:55:53;17.80;99.90
9973;DHT22;5027;53.560;10.062;2022-10-16T09:58:23;17.80;99.90
9973;DHT22;5027;53.560;10.062;2022-10-16T10:00:53;17.80;99.90
9973;DHT22;5027;53.560;10.062;2022-10-16T10:03:34;17.90;99.90
9973;DHT22;5027;53.560;10.062;2022-10-16T10:06:06;17.90;99.90
9973;DHT22;5027;53.560;10.062;2022-10-16T10:08:34;17.90;99.90
9973;DHT22;5027;53.560;10.062;2022-10-16T10:11:00;17.90;99.90
9973;DHT22;5027;53.560;10.062;2022-10-16T10:13:27;17.90;99.90
9973;DHT22;5027;53.560;10.062;2022-10-16T10:15:54;17.90;99.90
9973;DHT22;5027;53.560;10.062;2022-10-16T10:18:21;17.90;99.90
9973;DHT22;5027;53.560;10.062;2022-10-16T10:21:01;18.00;99.90
9973;DHT22;5027;53.560;10.062;2022-10-16T10:23:29;17.90;99.90
9973;DHT22;5027;53.560;10.062;2022-10-16T10:26:24;18.00;99.90
9973;DHT22;5027;53.560;10.062;2022-10-16T10:33:12;18.00;99.90
9973;DHT22;5027;53.560;10.062;2022-10-16T10:38:39;18.00;99.90
9973;DHT22;5027;53.560;10.062;2022-10-16T10:44:18;18.00;99.90
9973;DHT22;5027;53.560;10.062;2022-10-16T10:47:15;18.00;99.90
9973;DHT22;5027;53.560;10.062;2022-10-16T10:50:07;18.10;99.90
9973;DHT22;5027;53.560;10.062;2022-10-16T10:55:33;18.10;99.90
9973;DHT22;5027;53.560;10.062;2022-10-16T10:58:29;18.10;99.90
9973;DHT22;5027;53.560;10.062;2022-10-16T11:01:14;18.10;99.90
9973;DHT22;5027;53.560;10.062;2022-10-16T11:06:23;18.20;99.90
9973;DHT22;5027;53.560;10.062;2022-10-16T11:09:01;18.20;99.90
9973;DHT22;5027;53.560;10.062;2022-10-16T11:11:36;18.20;99.90
9973;DHT22;5027;53.560;10.062;2022-10-16T11:19:44;18.20;99.90
9973;DHT22;5027;53.560;10.062;2022-10-16T11:22:28;18.20;99.90
9973;DHT22;5027;53.560;10.062;2022-10-16T11:25:16;18.30;99.90
9973;DHT22;5027;53.560;10.062;2022-10-16T11:30:24;18.30;99.90
9973;DHT22;5027;53.560;10.062;2022-10-16T11:38:29;18.40;99.90
9973;DHT22;5027;53.560;10.062;2022-10-16T11:41:02;18.40;99.90
9973;DHT22;5027;53.560;10.062;2022-10-16T11:43:38;18.40;99.90
9973;DHT22;5027;53.560;10.062;2022-10-16T11:46:17;18.40;99.90
9973;DHT22;5027;53.560;10.062;2022-10-16T11:51:39;18.40;99.90
9973;DHT22;5027;53.560;10.062;2022-10-16T11:54:32;18.40;99.90
9973;DHT22;5027;53.560;10.062;2022-10-16T11:57:02;18.50;99.90
9973;DHT22;5027;53.560;10.062;2022-10-16T11:59:52;18.50;99.90
9973;DHT22;5027;53.560;10.062;2022-10-16T12:02:33;18.50;99.90
9973;DHT22;5027;53.560;10.062;2022-10-16T12:05:25;18.50;99.90
9973;DHT22;5027;53.560;10.062;2022-10-16T12:10:32;18.50;99.90
9973;DHT22;5027;53.560;10.062;2022-10-16T12:13:30;18.60;99.90
9973;DHT22;5027;53.560;10.062;2022-10-16T12:16:22;18.60;99.90
9973;DHT22;5027;53.560;10.062;2022-10-16T12:18:49;18.60;99.90
9973;DHT22;5027;53.560;10.062;2022-10-16T12:21:31;18.60;99.90
9973;DHT22;5027;53.560;10.062;2022-10-16T12:24:00;18.60;99.90
9973;DHT22;5027;53.560;10.062;2022-10-16T12:26:32;18.80;99.90
9973;DHT22;5027;53.560;10.062;2022-10-16T12:29:21;18.80;99.90
9973;DHT22;5027;53.560;10.062;2022-10-16T12:31:50;18.80;99.90
9973;DHT22;5027;53.560;10.062;2022-10-16T12:37:10;19.00;99.90
9973;DHT22;5027;53.560;10.062;2022-10-16T12:39:38;19.00;99.90
9973;DHT22;5027;53.560;10.062;2022-10-16T12:44:48;18.90;99.90
9973;DHT22;5027;53.560;10.062;2022-10-16T12:49:57;19.00;99.90
9973;DHT22;5027;53.560;10.062;2022-10-16T12:52:35;19.00;99.90
9973;DHT22;5027;53.560;10.062;2022-10-16T12:55:04;19.00;99.90
9973;DHT22;5027;53.560;10.062;2022-10-16T12:57:49;19.00;99.90
9973;DHT22;5027;53.560;10.062;2022-10-16T13:00:32;19.10;99.90
9973;DHT22;5027;53.560;10.062;2022-10-16T13:14:19;19.20;99.90
9973;DHT22;5027;53.560;10.062;2022-10-16T13:22:24;19.00;99.90
9973;DHT22;5027;53.560;10.062;2022-10-16T13:30:28;19.00;99.90
9973;DHT22;5027;53.560;10.062;2022-10-16T13:33:35;19.00;99.90
9973;DHT22;5027;53.560;10.062;2022-10-16T13:36:03;19.10;99.90
9973;DHT22;5027;53.560;10.062;2022-10-16T13:38:33;19.00;99.90
9973;DHT22;5027;53.560;10.062;2022-10-16T13:41:02;19.00;99.90
9973;DHT22;5027;53.560;10.062;2022-10-16T13:43:37;19.00;99.90
9973;DHT22;5027;53.560;10.062;2022-10-16T13:46:14;19.00;99.90
9973;DHT22;5027;53.560;10.062;2022-10-16T13:48:41;19.00;99.90
9973;DHT22;5027;53.560;10.062;2022-10-16T13:51:17;19.10;99.90
9973;DHT22;5027;53.560;10.062;2022-10-16T13:53:45;19.00;99.90
9973;DHT22;5027;53.560;10.062;2022-10-16T13:56:14;19.10;99.90
9973;DHT22;5027;53.560;10.062;2022-10-16T13:58:42;19.20;99.90
9973;DHT22;5027;53.560;10.062;2022-10-16T14:01:20;19.20;99.90
9973;DHT22;5027;53.560;10.062;2022-10-16T14:04:01;19.10;99.90
9973;DHT22;5027;53.560;10.062;2022-10-16T14:06:29;19.20;99.90
9973;DHT22;5027;53.560;10.062;2022-10-16T14:11:30;19.20;99.90
9973;DHT22;5027;53.560;10.062;2022-10-16T14:13:57;19.20;99.90
9973;DHT22;5027;53.560;10.062;2022-10-16T14:16:27;19.20;99.90
9973;DHT22;5027;53.560;10.062;2022-10-16T14:19:05;19.20;99.90
9973;DHT22;5027;53.560;10.062;2022-10-16T14:21:34;19.30;99.90
9973;DHT22;5027;53.560;10.062;2022-10-16T14:24:11;19.30;99.90
9973;DHT22;5027;53.560;10.062;2022-10-16T14:26:44;19.20;99.90
9973;DHT22;5027;53.560;10.062;2022-10-16T14:29:20;19.20;99.90
9973;DHT22;5027;53.560;10.062;2022-10-16T14:31:56;19.50;99.90
9973;DHT22;5027;53.560;10.062;2022-10-16T14:34:31;19.40;99.90
9973;DHT22;5027;53.560;10.062;2022-10-16T14:37:05;19.30;99.90
9973;DHT22;5027;53.560;10.062;2022-10-16T14:39:39;19.30;99.90
9973;DHT22;5027;53.560;10.062;2022-10-16T14:42:14;19.20;99.90
9973;DHT22;5027;53.560;10.062;2022-10-16T14:44:42;19.20;99.90
9973;DHT22;5027;53.560;10.062;2022-10-16T14:47:13;19.20;99.90
9973;DHT22;5027;53.560;10.062;2022-10-16T14:49:41;19.20;99.90
9973;DHT22;5027;53.560;10.062;2022-10-16T14:52:11;19.20;99.90
9973;DHT22;5027;53.560;10.062;2022-10-16T14:54:39;19.20;99.90
9973;DHT22;5027;53.560;10.062;2022-10-16T14:57:19;19.10;99.90
9973;DHT22;5027;53.560;10.062;2022-10-16T14:59:47;19.10;99.90
9973;DHT22;5027;53.560;10.062;2022-10-16T15:02:22;19.10;99.90
9973;DHT22;5027;53.560;10.062;2022-10-16T15:04:49;19.10;99.90
9973;DHT22;5027;53.560;10.062;2022-10-16T15:07:16;19.10;99.90
9973;DHT22;5027;53.560;10.062;2022-10-16T15:09:43;19.10;99.90
9973;DHT22;5027;53.560;10.062;2022-10-16T15:12:15;19.10;99.90
9973;DHT22;5027;53.560;10.062;2022-10-16T15:14:42;19.10;99.90
9973;DHT22;5027;53.560;10.062;2022-10-16T15:17:10;19.10;99.90
9973;DHT22;5027;53.560;10.062;2022-10-16T15:19:37;19.10;99.90
9973;DHT22;5027;53.560;10.062;2022-10-16T15:22:03;19.20;99.90
9973;DHT22;5027;53.560;10.062;2022-10-16T15:24:30;19.10;99.90
9973;DHT22;5027;53.560;10.062;2022-10-16T15:26:57;19.10;99.90
9973;DHT22;5027;53.560;10.062;2022-10-16T15:29:23;19.10;99.90
9973;DHT22;5027;53.560;10.062;2022-10-16T15:31:50;19.10;99.90
9973;DHT22;5027;53.560;10.062;2022-10-16T15:34:17;19.10;99.90
9973;DHT22;5027;53.560;10.062;2022-10-16T15:36:45;19.10;99.90
9973;DHT22;5027;53.560;10.062;2022-10-16T15:39:18;19.10;99.90
9973;DHT22;5027;53.560;10.062;2022-10-16T15:41:47;19.00;99.90
9973;DHT22;5027;53.560;10.062;2022-10-16T15:44:20;19.10;99.90
9973;DHT22;5027;53.560;10.062;2022-10-16T15:46:49;19.00;99.90
9973;DHT22;5027;53.560;10.062;2022-10-16T15:49:16;19.10;99.90
9973;DHT22;5027;53.560;10.062;2022-10-16T15:51:44;19.10;99.90
9973;DHT22;5027;53.560;10.062;2022-10-16T15:54:11;19.10;99.90
9973;DHT22;5027;53.560;10.062;2022-10-16T15:56:38;19.10;99.90
9973;DHT22;5027;53.560;10.062;2022-10-16T15:59:05;19.10;99.90
9973;DHT22;5027;53.560;10.062;2022-10-16T16:01:33;19.10;99.90
9973;DHT22;5027;53.560;10.062;2022-10-16T16:04:00;19.10;99.90
9973;DHT22;5027;53.560;10.062;2022-10-16T16:06:41;19.10;99.90
9973;DHT22;5027;53.560;10.062;2022-10-16T16:09:11;19.00;99.90
9973;DHT22;5027;53.560;10.062;2022-10-16T16:11:38;19.00;99.90
9973;DHT22;5027;53.560;10.062;2022-10-16T16:14:06;19.00;99.90
9973;DHT22;5027;53.560;10.062;2022-10-16T16:16:33;19.00;99.90
9973;DHT22;5027;53.560;10.062;2022-10-16T16:19:05;19.00;99.90
9973;DHT22;5027;53.560;10.062;2022-10-16T16:21:37;19.00;99.90
9973;DHT22;5027;53.560;10.062;2022-10-16T16:24:04;19.00;99.90
9973;DHT22;5027;53.560;10.062;2022-10-16T16:26:36;19.00;99.90
9973;DHT22;5027;53.560;10.062;2022-10-16T16:29:06;19.00;99.90
9973;DHT22;5027;53.560;10.062;2022-10-16T16:31:32;18.90;99.90
9973;DHT22;5027;53.560;10.062;2022-10-16T16:34:00;18.90;99.90
9973;DHT22;5027;53.560;10.062;2022-10-16T16:36:27;19.00;99.90
9973;DHT22;5027;53.560;10.062;2022-10-16T16:38:53;18.90;99.90
9973;DHT22;5027;53.560;10.062;2022-10-16T16:41:23;18.90;99.90
9973;DHT22;5027;53.560;10.062;2022-10-16T16:43:50;18.90;99.90
9973;DHT22;5027;53.560;10.062;2022-10-16T16:46:18;18.90;99.90
9973;DHT22;5027;53.560;10.062;2022-10-16T16:48:45;18.90;99.90
9973;DHT22;5027;53.560;10.062;2022-10-16T16:51:16;18.90;99.90
9973;DHT22;5027;53.560;10.062;2022-10-16T16:53:49;18.90;99.90
9973;DHT22;5027;53.560;10.062;2022-10-16T16:56:17;18.90;99.90
9973;DHT22;5027;53.560;10.062;2022-10-16T16:58:48;18.90;99.90
9973;DHT22;5027;53.560;10.062;2022-10-16T17:01:15;18.90;99.90
9973;DHT22;5027;53.560;10.062;2022-10-16T17:03:49;18.90;99.90
9973;DHT22;5027;53.560;10.062;2022-10-16T17:06:17;18.90;99.90
9973;DHT22;5027;53.560;10.062;2022-10-16T17:08:47;18.80;99.90
9973;DHT22;5027;53.560;10.062;2022-10-16T17:11:23;18.80;99.90
9973;DHT22;5027;53.560;10.062;2022-10-16T17:13:51;18.80;99.90
9973;DHT22;5027;53.560;10.062;2022-10-16T17:16:24;18.80;99.90
9973;DHT22;5027;53.560;10.062;2022-10-16T17:18:52;18.80;99.90
9973;DHT22;5027;53.560;10.062;2022-10-16T17:21:19;18.80;99.90
9973;DHT22;5027;53.560;10.062;2022-10-16T17:23:46;18.70;99.90
9973;DHT22;5027;53.560;10.062;2022-10-16T17:26:16;18.70;99.90
9973;DHT22;5027;53.560;10.062;2022-10-16T17:28:43;18.70;99.90
9973;DHT22;5027;53.560;10.062;2022-10-16T17:31:16;18.70;99.90
9973;DHT22;5027;53.560;10.062;2022-10-16T17:33:43;18.70;99.90
9973;DHT22;5027;53.560;10.062;2022-10-16T17:36:11;18.70;99.90
9973;DHT22;5027;53.560;10.062;2022-10-16T17:38:40;18.70;99.90
9973;DHT22;5027;53.560;10.062;2022-10-16T17:43:38;18.70;99.90